Time;durP1;ratioP1;P1;durP2;ratioP2;P2;SDS_P1;SDS_P2;PMS_P1;PMS_P2;Temp;Humidity;BMP_temperature;BMP_pressure;BME280_temperature;BME280_humidity;BME280_pressure;Samples;Min_cycle;Max_cycle;Signal;HPM_P1;HPM_P2
2023/01/15 00:01:31;;;;;;;0.10;0.00;;;13.40;99.90;;;13.33;55.67;99610.66;4928975;28;98949;-55
2023/01/15 00:03:58;;;;;;;0.00;0.00;;;13.50;99.90;;;13.31;57.56;99627.59;4924143;28;98542;-56
2023/01/15 00:06:26;;;;;;;1.30;0.20;;;13.50;99.90;;;13.26;54.87;99619.06;4929625;28;97268;-57
2023/01/15 00:08:53;;;;;;;0.10;0.00;;;13.60;99.90;;;13.36;57.40;99617.56;4931455;28;98986;-57
2023/01/15 00:11:19;;;;;;;0.20;0.20;;;13.60;99.90;;;13.29;54.67;99632.97;4928249;28;97272;-62
2023/01/15 00:13:45;;;;;;;0.20;0.10;;;13.60;99.90;;;13.16;54.78;99629.34;4927661;28;97354;-56
2023/01/15 00:16:15;;;;;;;0.30;0.10;;;13.40;99.90;;;13.11;54.12;99639.38;4931026;28;97875;-57
2023/01/15 00:18:42;;;;;;;0.10;0.10;;;13.40;99.90;;;12.87;57.30;99638.22;4927394;28;97135;-56
2023/01/15 00:21:11;;;;;;;0.00;0.00;;;13.20;99.90;;;12.41;54.05;99644.50;4930966;28;99225;-56
2023/01/15 00:29:12;;;;;;;0.00;0.00;;;12.30;99.90;;;11.49;57.20;99656.81;4928014;28;97721;-55
2023/01/15 00:31:38;;;;;;;0.03;0.03;;;12.00;99.90;;;11.13;57.40;99664.06;4927896;28;98228;-56
2023/01/15 00:34:04;;;;;;;1.07;0.30;;;11.80;99.90;;;11.19;57.85;99684.88;4947177;28;98347;-57
2023/01/15 00:36:30;;;;;;;0.00;0.00;;;11.70;99.90;;;11.08;60.33;99674.03;4923904;28;97479;-57
2023/01/15 00:38:56;;;;;;;0.17;0.10;;;11.60;99.90;;;11.41;60.94;99669.56;4929143;28;112653;-57
2023/01/15 00:41:22;;;;;;;0.00;0.00;;;11.90;99.90;;;11.50;60.34;99663.78;4927631;28;98672;-57
2023/01/15 00:43:48;;;;;;;0.10;0.10;;;11.90;99.90;;;11.53;59.52;99674.19;4927617;28;97586;-57
2023/01/15 00:46:14;;;;;;;0.47;0.10;;;12.00;99.90;;;11.71;62.23;99663.53;4930658;28;97321;-57
2023/01/15 00:48:40;;;;;;;0.20;0.07;;;12.00;99.90;;;11.80;56.37;99665.69;4924699;28;111967;-56
2023/01/15 00:51:05;;;;;;;2.57;0.43;;;12.20;99.90;;;11.83;56.16;99666.38;4930979;28;99131;-56
2023/01/15 00:53:31;;;;;;;2.47;0.23;;;12.20;99.90;;;12.05;59.00;99655.44;4925410;28;97479;-54
2023/01/15 00:55:57;;;;;;;0.00;0.00;;;12.30;99.90;;;12.28;59.84;99661.16;4928289;28;97742;-57
2023/01/15 00:58:23;;;;;;;0.43;0.03;;;12.50;99.90;;;12.35;55.18;99662.53;4923914;28;98809;-56
2023/01/15 01:00:56;;;;;;;0.10;0.10;;;12.70;99.90;;;12.48;57.40;99658.22;4929730;28;99551;-55
2023/01/15 01:03:23;;;;;;;0.10;0.10;;;12.70;99.90;;;12.57;58.29;99652.38;4926320;28;97312;-54
2023/01/15 01:05:49;;;;;;;1.80;0.10;;;12.80;99.90;;;12.71;57.56;99647.09;4926374;28;97461;-60
2023/01/15 01:08:16;;;;;;;2.53;0.07;;;12.90;99.90;;;12.54;56.65;99655.22;4927671;28;97664;-59
2023/01/15 01:10:42;;;;;;;0.30;0.00;;;12.70;99.90;;;12.63;57.77;99662.59;4924990;28;98356;-59
2023/01/15 01:13:08;;;;;;;0.03;0.03;;;12.70;99.90;;;12.75;58.57;99646.00;4927508;28;97133;-59
2023/01/15 01:15:36;;;;;;;0.10;0.10;;;12.80;99.90;;;12.64;53.59;99637.84;4922931;28;98671;-54
2023/01/15 01:18:03;;;;;;;0.73;0.17;;;12.70;99.90;;;12.46;54.76;99629.22;4929982;28;99345;-56
2023/01/15 01:20:30;;;;;;;0.00;0.00;;;12.40;99.90;;;12.28;55.61;99622.38;4927255;28;98620;-56
2023/01/15 01:22:56;;;;;;;0.20;0.07;;;12.10;99.90;;;12.07;54.80;99629.78;4930602;28;98501;-56
2023/01/15 01:25:22;;;;;;;0.30;0.10;;;11.90;99.90;;;11.98;55.95;99632.94;4925428;28;97528;-57
2023/01/15 01:27:48;;;;;;;0.10;0.00;;;11.70;99.90;;;11.93;59.42;99635.00;4908131;28;98972;-60
2023/01/15 01:30:14;;;;;;;0.07;0.00;;;11.60;99.90;;;11.84;58.50;99640.78;4916622;28;98182;-56
2023/01/15 01:32:44;;;;;;;0.03;0.03;;;11.50;99.90;;;11.74;57.83;99644.88;4925461;28;97331;-55
2023/01/15 01:35:10;;;;;;;0.00;0.00;;;11.50;99.90;;;11.62;57.31;99635.84;4908050;28;97349;-57
2023/01/15 01:37:36;;;;;;;0.00;0.00;;;11.30;99.90;;;11.52;56.98;99639.94;4908404;28;97484;-58
2023/01/15 01:40:03;;;;;;;0.10;0.00;;;11.30;99.90;;;11.40;57.85;99635.31;4927408;28;98000;-57
2023/01/15 01:42:29;;;;;;;4.27;0.13;;;11.20;99.90;;;11.38;61.49;99667.09;4929834;28;99232;-50
2023/01/15 01:45:08;;;;;;;0.00;0.00;;;11.20;99.90;;;11.37;60.02;99662.75;4933099;28;96706;-58
2023/01/15 01:47:34;;;;;;;0.27;0.10;;;11.20;99.90;;;11.33;57.33;99634.81;4926525;28;98725;-53
2023/01/15 01:50:09;;;;;;;0.00;0.00;;;11.20;99.90;;;11.23;56.86;99641.53;4934263;28;97217;-60
2023/01/15 01:52:42;;;;;;;0.00;0.00;;;11.10;99.90;;;11.13;55.77;99650.88;4924309;28;97515;-60
2023/01/15 01:55:11;;;;;;;0.13;0.13;;;11.00;99.90;;;11.21;56.45;99653.97;4926873;28;97244;-59
2023/01/15 01:57:38;;;;;;;0.00;0.00;;;11.10;99.90;;;11.27;60.07;99657.09;4938969;28;97387;-52
2023/01/15 02:00:05;;;;;;;0.00;0.00;;;11.00;99.90;;;11.22;57.65;99645.94;4927040;28;97838;-59
2023/01/15 02:02:32;;;;;;;0.27;0.17;;;11.00;99.90;;;11.09;56.94;99654.63;4925007;28;98313;-53
2023/01/15 02:04:58;;;;;;;1.33;0.03;;;11.00;99.90;;;11.25;60.95;99650.22;4926346;28;97672;-57
2023/01/15 02:07:25;;;;;;;0.00;0.00;;;11.00;99.90;;;11.14;56.73;99671.03;4938288;28;98294;-59
2023/01/15 02:09:51;;;;;;;2.83;0.23;;;11.00;99.90;;;11.19;57.37;99679.59;4922865;28;99616;-59
2023/01/15 02:12:35;;;;;;;6.40;0.43;;;11.00;99.90;;;11.22;56.60;99669.72;4925292;28;97496;-55
2023/01/15 02:15:22;;;;;;;0.00;0.00;;;11.00;99.90;;;11.26;59.20;99651.91;4919540;28;97478;-58
2023/01/15 02:17:51;;;;;;;0.00;0.00;;;11.10;99.90;;;11.31;61.56;99641.97;4924580;28;102055;-59
2023/01/15 02:20:30;;;;;;;0.10;0.10;;;11.10;99.90;;;11.24;55.58;99625.59;4929690;28;98659;-56
2023/01/15 02:23:26;;;;;;;0.13;0.10;;;11.00;99.90;;;11.35;59.66;99632.94;4921149;28;97337;-60
2023/01/15 02:26:28;;;;;;;0.10;0.00;;;11.10;99.90;;;11.32;56.73;99633.13;4923416;28;97380;-58
2023/01/15 02:28:57;;;;;;;0.20;0.20;;;11.10;99.90;;;11.26;58.70;99628.16;4922157;28;102803;-56
2023/01/15 02:31:35;;;;;;;0.40;0.10;;;11.00;99.90;;;11.29;56.86;99647.34;4924510;28;98466;-59
2023/01/15 02:34:19;;;;;;;0.00;0.00;;;11.10;99.90;;;11.26;55.93;99649.28;4942320;28;98143;-56
2023/01/15 02:36:52;;;;;;;0.23;0.03;;;11.10;99.90;;;11.24;57.23;99645.88;4922395;28;97911;-60
2023/01/15 02:39:19;;;;;;;0.53;0.17;;;11.00;99.90;;;11.26;56.29;99641.34;4928446;28;98147;-60
2023/01/15 02:41:52;;;;;;;0.10;0.07;;;11.10;99.90;;;11.31;56.84;99642.84;4922280;28;100850;-59
2023/01/15 02:44:21;;;;;;;0.23;0.10;;;11.10;99.90;;;11.32;56.71;99633.13;4928905;28;97453;-58
2023/01/15 02:46:47;;;;;;;0.00;0.00;;;11.10;99.90;;;11.33;58.55;99624.25;4925706;28;97358;-57
2023/01/15 02:49:18;;;;;;;0.10;0.10;;;11.10;99.90;;;11.27;55.17;99620.16;4928403;28;98252;-57
2023/01/15 02:51:56;;;;;;;0.00;0.00;;;11.10;99.90;;;11.24;57.33;99619.47;4910905;28;101372;-60
2023/01/15 02:54:27;;;;;;;1.33;0.10;;;11.00;99.90;;;11.25;54.82;99615.91;4926589;28;96827;-60
2023/01/15 02:56:56;;;;;;;0.00;0.00;;;11.10;99.90;;;11.23;55.40;99613.34;4944046;28;97549;-57
2023/01/15 02:59:32;;;;;;;0.23;0.00;;;11.00;99.90;;;11.11;54.04;99624.56;4923706;28;98155;-60
2023/01/15 03:02:02;;;;;;;1.57;0.17;;;11.00;99.90;;;11.22;60.39;99637.19;4929272;28;97399;-59
2023/01/15 03:04:46;;;;;;;0.40;0.10;;;11.00;99.90;;;11.25;57.46;99629.09;4924697;28;99900;-57
2023/01/15 03:07:33;;;;;;;0.10;0.00;;;11.10;99.90;;;11.11;59.63;99634.28;4926440;28;97205;-58
2023/01/15 03:09:59;;;;;;;0.00;0.00;;;10.90;99.90;;;11.15;55.17;99630.56;4926260;28;100105;-57
2023/01/15 03:13:01;;;;;;;0.00;0.00;;;11.00;99.90;;;11.28;61.12;99626.28;4924293;28;97262;-60
2023/01/15 03:19:12;;;;;;;0.07;0.00;;;11.00;99.90;;;11.23;55.51;99638.88;4940874;28;97133;-58
2023/01/15 03:22:01;;;;;;;0.10;0.10;;;11.10;99.90;;;11.19;57.34;99624.16;4940145;28;98827;-60
2023/01/15 03:25:03;;;;;;;0.00;0.00;;;11.10;99.90;;;11.23;59.95;99617.78;4948519;28;97652;-54
2023/01/15 03:27:29;;;;;;;0.10;0.00;;;11.00;99.90;;;11.10;54.59;99624.66;4947584;28;99269;-60
2023/01/15 03:30:03;;;;;;;1.60;0.20;;;10.90;99.90;;;11.10;55.53;99611.44;4955667;28;97292;-58
2023/01/15 03:32:30;;;;;;;0.10;0.10;;;11.00;99.90;;;11.14;56.11;99597.16;4950800;28;97626;-58
2023/01/15 03:34:56;;;;;;;0.00;0.00;;;11.00;99.90;;;11.11;55.35;99592.03;4946386;28;98846;-59
2023/01/15 03:37:26;;;;;;;0.93;0.00;;;11.00;99.90;;;11.07;55.78;99585.25;4944950;28;100374;-59
2023/01/15 03:39:52;;;;;;;0.00;0.00;;;11.00;99.90;;;11.00;55.01;99588.22;4952053;28;97346;-56
2023/01/15 03:42:33;;;;;;;0.60;0.20;;;10.90;99.90;;;11.01;59.35;99587.28;4951338;28;98109;-56
2023/01/15 03:45:23;;;;;;;0.00;0.00;;;10.90;99.90;;;11.10;56.81;99590.34;4940557;28;103950;-57
2023/01/15 03:48:40;;;;;;;0.13;0.10;;;10.90;99.90;;;11.10;56.49;99577.16;4953045;28;100902;-59
2023/01/15 03:51:41;;;;;;;0.37;0.10;;;10.90;99.90;;;11.13;56.12;99584.88;4938703;28;97234;-59
2023/01/15 03:54:15;;;;;;;1.60;0.10;;;11.00;99.90;;;11.14;55.12;99594.50;4876986;28;101043;-59
2023/01/15 03:56:56;;;;;;;0.30;0.10;;;10.90;99.90;;;11.19;56.70;99585.41;4942711;28;97129;-59
2023/01/15 03:59:50;;;;;;;0.77;0.50;;;11.00;99.90;;;11.09;54.61;99572.81;4924369;28;97187;-59
2023/01/15 04:02:19;;;;;;;0.40;0.10;;;11.00;99.90;;;11.20;56.40;99591.56;4941210;28;97287;-56
2023/01/15 04:04:46;;;;;;;2.80;0.17;;;11.00;99.90;;;11.18;54.90;99591.63;4917354;28;100547;-60
2023/01/15 04:07:12;;;;;;;0.40;0.20;;;11.00;99.90;;;11.24;56.05;99599.22;4947892;28;97109;-59
2023/01/15 04:09:39;;;;;;;0.50;0.30;;;11.00;99.90;;;11.15;54.67;99598.88;4942323;28;97453;-60
2023/01/15 04:12:06;;;;;;;1.13;0.23;;;11.00;99.90;;;11.09;52.69;99597.41;4943282;28;97191;-59
2023/01/15 04:14:33;;;;;;;0.07;0.07;;;11.00;99.90;;;11.18;53.48;99582.88;4945265;28;98689;-59
2023/01/15 04:16:58;;;;;;;2.80;0.20;;;11.00;99.90;;;11.20;55.66;99586.28;4953228;28;96835;-57
2023/01/15 04:19:24;;;;;;;0.03;0.00;;;11.10;99.90;;;11.35;52.06;99593.34;4948301;28;97094;-57
2023/01/15 04:21:50;;;;;;;1.57;0.17;;;11.20;99.90;;;11.24;51.64;99603.63;4942942;28;97433;-57
2023/01/15 04:24:16;;;;;;;0.10;0.00;;;11.20;99.90;;;11.26;51.81;99596.47;5131480;22;98820;-57
2023/01/15 04:26:42;;;;;;;0.20;0.20;;;11.10;99.90;;;11.33;56.72;99592.59;4924871;28;110143;-58
2023/01/15 04:29:07;;;;;;;0.83;0.17;;;11.10;99.90;;;11.25;53.74;99594.78;4911284;28;97565;-53
2023/01/15 04:31:35;;;;;;;0.77;0.10;;;11.10;99.90;;;11.32;58.23;99599.66;4927216;28;97787;-56
2023/01/15 04:34:02;;;;;;;1.43;0.10;;;11.10;99.90;;;11.21;52.29;99598.53;4928741;28;97465;-57
2023/01/15 04:36:28;;;;;;;0.33;0.10;;;11.10;99.90;;;11.24;53.40;99603.63;4930382;28;97571;-57
2023/01/15 04:38:56;;;;;;;0.00;0.00;;;11.10;99.90;;;11.17;52.56;99602.28;4934151;28;99417;-52
2023/01/15 04:44:06;;;;;;;0.00;0.00;;;11.00;99.90;;;11.22;57.56;99605.50;4933073;28;97042;-58
2023/01/15 04:46:44;;;;;;;0.83;0.10;;;11.10;99.90;;;11.15;54.21;99602.38;4915871;28;98499;-58
2023/01/15 04:49:14;;;;;;;0.20;0.20;;;11.10;99.90;;;11.11;56.67;99607.88;4928679;28;98646;-58
2023/01/15 04:51:40;;;;;;;0.60;0.10;;;10.90;99.90;;;11.17;55.75;99591.72;4910791;28;97922;-56
2023/01/15 04:54:09;;;;;;;1.70;0.10;;;11.00;99.90;;;11.25;56.37;99605.34;4937656;28;97867;-59
2023/01/15 04:56:45;;;;;;;0.10;0.00;;;11.10;99.90;;;11.22;54.42;99610.78;4931366;28;97377;-58
2023/01/15 04:59:12;;;;;;;0.37;0.00;;;11.10;99.90;;;11.28;57.38;99610.44;4925383;28;97124;-58
2023/01/15 05:01:38;;;;;;;0.00;0.00;;;11.10;99.90;;;11.26;58.59;99609.69;4913895;28;96862;-57
2023/01/15 05:04:04;;;;;;;0.00;0.00;;;11.10;99.90;;;11.17;54.23;99618.13;4921395;28;97974;-57
2023/01/15 05:06:30;;;;;;;1.30;0.10;;;11.00;99.90;;;11.19;58.24;99605.69;4931490;28;98304;-57
2023/01/15 05:09:01;;;;;;;4.40;0.40;;;11.00;99.90;;;11.17;53.99;99603.13;4934810;28;97511;-54
2023/01/15 05:11:27;;;;;;;0.00;0.00;;;11.00;99.90;;;11.19;54.41;99595.13;4921558;28;97423;-53
2023/01/15 05:13:54;;;;;;;0.03;0.03;;;11.00;99.90;;;11.30;54.14;99605.97;4916206;28;98917;-59
2023/01/15 05:16:26;;;;;;;0.23;0.10;;;11.20;99.90;;;11.29;57.31;99613.03;4918726;28;97175;-58
2023/01/15 05:18:56;;;;;;;0.00;0.00;;;11.20;99.90;;;11.24;53.79;99614.19;4923414;28;97244;-58
2023/01/15 05:21:27;;;;;;;1.93;0.23;;;11.10;99.90;;;11.33;56.53;99604.00;4930829;28;97084;-56
2023/01/15 05:23:56;;;;;;;0.10;0.10;;;11.20;99.90;;;11.30;55.68;99609.44;4920645;28;97617;-57
2023/01/15 05:26:23;;;;;;;4.97;0.40;;;11.20;99.90;;;11.31;56.58;99610.31;4935152;28;99266;-59
2023/01/15 05:28:52;;;;;;;0.00;0.00;;;11.10;99.90;;;11.35;55.63;99606.53;4945481;28;97373;-58
2023/01/15 05:31:19;;;;;;;0.20;0.10;;;11.20;99.90;;;11.32;55.94;99604.09;4931251;28;96936;-56
2023/01/15 05:33:47;;;;;;;0.23;0.07;;;11.20;99.90;;;11.28;56.17;99613.09;4922259;28;119295;-57
2023/01/15 05:36:17;;;;;;;0.17;0.03;;;11.20;99.90;;;11.27;53.87;99614.03;4935270;28;96925;-57
2023/01/15 05:38:43;;;;;;;4.17;0.23;;;11.20;99.90;;;11.30;55.95;99605.97;4917236;28;97994;-56
2023/01/15 05:44:05;;;;;;;9.90;0.27;;;11.20;99.90;;;11.47;53.92;99611.16;4916214;28;101884;-58
2023/01/15 05:46:36;;;;;;;0.67;0.10;;;11.30;99.90;;;11.44;55.89;99599.91;4929616;28;97951;-56
2023/01/15 05:49:04;;;;;;;0.00;0.00;;;11.30;99.90;;;11.41;54.06;99600.91;4916089;28;97310;-55
2023/01/15 05:51:30;;;;;;;0.87;0.20;;;11.30;99.90;;;11.29;52.96;99614.81;4931519;28;97146;-58
2023/01/15 05:53:57;;;;;;;0.53;0.10;;;11.30;99.90;;;11.62;57.89;99599.72;4924043;28;102659;-57
2023/01/15 05:56:23;;;;;;;0.00;0.00;;;11.50;99.90;;;11.47;52.63;99613.78;4931723;28;98531;-58
2023/01/15 05:58:49;;;;;;;0.00;0.00;;;11.50;99.90;;;11.65;56.79;99603.97;4935030;28;99337;-56
2023/01/15 06:01:15;;;;;;;1.50;0.10;;;11.60;99.90;;;11.59;56.38;99610.47;4933821;28;96841;-59
2023/01/15 06:03:40;;;;;;;0.63;0.30;;;11.50;99.90;;;11.40;51.65;99615.06;4925135;28;96793;-58
2023/01/15 06:06:11;;;;;;;2.93;0.17;;;11.40;99.90;;;11.46;52.48;99617.38;4914772;28;97223;-57
2023/01/15 06:08:37;;;;;;;3.23;0.27;;;11.40;99.90;;;11.32;54.54;99618.13;4904825;28;97337;-58
2023/01/15 06:11:05;;;;;;;0.93;0.20;;;11.30;99.90;;;11.19;51.80;99629.44;4931373;28;97256;-59
2023/01/15 06:13:32;;;;;;;1.17;0.07;;;11.30;99.90;;;11.10;52.65;99627.28;4932351;28;97665;-58
2023/01/15 06:16:00;;;;;;;0.20;0.10;;;11.10;99.90;;;11.16;52.12;99630.47;4919443;28;97870;-54
2023/01/15 06:18:26;;;;;;;0.20;0.03;;;11.20;99.90;;;11.21;55.80;99643.41;4921624;28;97764;-59
2023/01/15 06:20:51;;;;;;;6.53;0.43;;;11.10;99.90;;;11.20;55.13;99639.06;4928887;28;97489;-56
2023/01/15 06:23:17;;;;;;;2.00;0.20;;;11.20;99.90;;;11.26;54.07;99644.00;4942490;28;109687;-55
2023/01/15 06:25:44;;;;;;;0.53;0.00;;;11.20;99.90;;;11.19;52.87;99653.19;4936912;28;97167;-57
2023/01/15 06:28:10;;;;;;;1.07;0.40;;;11.20;99.90;;;11.16;53.15;99648.09;4937581;28;100190;-56
2023/01/15 06:30:38;;;;;;;0.30;0.20;;;11.10;99.90;;;11.05;53.03;99647.81;4934302;28;96885;-57
2023/01/15 06:33:07;;;;;;;0.20;0.20;;;11.00;99.90;;;11.08;54.78;99652.91;4926279;28;97939;-56
2023/01/15 06:35:34;;;;;;;1.03;0.20;;;11.00;99.90;;;10.98;54.93;99656.03;4930711;28;98621;-59
2023/01/15 06:38:00;;;;;;;0.43;0.03;;;11.00;99.90;;;11.07;53.26;99644.16;4941270;28;97315;-59
2023/01/15 06:40:27;;;;;;;0.40;0.17;;;11.10;99.90;;;10.94;53.22;99648.38;4929959;28;97574;-58
2023/01/15 06:48:26;;;;;;;0.00;0.00;;;11.00;99.90;;;10.93;53.13;99663.34;4945425;28;96757;-59
2023/01/15 06:50:53;;;;;;;0.67;0.10;;;10.90;99.90;;;10.92;54.96;99660.78;4942154;28;97117;-59
2023/01/15 06:53:20;;;;;;;0.00;0.00;;;10.90;99.90;;;11.02;56.29;99665.50;4930095;28;99749;-62
2023/01/15 06:55:47;;;;;;;0.17;0.10;;;10.90;99.90;;;11.16;53.97;99654.22;4941966;28;99742;-55
2023/01/15 06:58:13;;;;;;;0.10;0.10;;;11.20;99.90;;;11.30;57.63;99656.13;4938610;28;97271;-58
2023/01/15 07:00:41;;;;;;;0.10;0.00;;;11.30;99.90;;;11.31;53.98;99663.94;4939443;28;97395;-59
2023/01/15 07:03:07;;;;;;;0.07;0.00;;;11.40;99.90;;;11.25;52.57;99652.84;4939027;28;97499;-57
2023/01/15 07:05:33;;;;;;;0.00;0.00;;;11.30;99.90;;;11.13;54.12;99669.34;4922556;28;97205;-58
2023/01/15 07:07:59;;;;;;;0.53;0.03;;;11.10;99.90;;;11.20;54.80;99665.47;4940054;28;96931;-58
2023/01/15 07:10:25;;;;;;;3.77;0.17;;;11.10;99.90;;;11.30;58.20;99671.94;4938912;28;97317;-55
2023/01/15 07:12:51;;;;;;;2.90;0.20;;;11.20;99.90;;;11.32;53.59;99675.34;4943176;28;98026;-56
2023/01/15 07:15:17;;;;;;;0.30;0.17;;;11.40;99.90;;;11.28;53.66;99673.78;4938643;28;115976;-58
2023/01/15 07:17:42;;;;;;;0.13;0.00;;;11.30;99.90;;;11.38;55.59;99664.44;4918513;28;97771;-60
2023/01/15 07:20:09;;;;;;;1.40;0.20;;;11.30;99.90;;;11.29;53.79;99675.53;4914341;28;98072;-58
2023/01/15 07:22:35;;;;;;;1.90;0.30;;;11.20;99.90;;;11.24;53.26;99683.69;4936024;28;97950;-55
2023/01/15 07:25:01;;;;;;;0.93;0.30;;;11.20;99.90;;;11.21;55.42;99689.13;4934937;28;97413;-55
2023/01/15 07:27:27;;;;;;;1.83;0.20;;;11.10;99.90;;;11.15;53.70;99673.63;4911256;28;97235;-57
2023/01/15 07:29:53;;;;;;;0.30;0.30;;;11.10;99.90;;;11.27;53.81;99654.47;4939405;28;96731;-56
2023/01/15 07:32:19;;;;;;;0.03;0.03;;;11.20;99.90;;;11.32;58.46;99678.00;4935072;28;98624;-56
2023/01/15 07:34:45;;;;;;;0.40;0.37;;;11.20;99.90;;;11.35;55.05;99691.03;4937726;28;101180;-57
2023/01/15 07:37:10;;;;;;;0.20;0.00;;;11.30;99.90;;;11.30;57.01;99686.00;4936952;28;97395;-58
2023/01/15 07:39:36;;;;;;;0.10;0.00;;;11.30;99.90;;;11.24;56.06;99690.75;4942610;28;97335;-57
2023/01/15 07:50:20;;;;;;;1.37;0.00;;;11.10;99.90;;;11.09;56.05;99694.19;4938252;28;97122;-53
2023/01/15 07:52:46;;;;;;;0.10;0.10;;;10.90;99.90;;;10.91;53.13;99702.16;4933467;28;101674;-56
2023/01/15 07:55:13;;;;;;;1.80;0.33;;;10.80;99.90;;;10.82;53.62;99697.34;4935239;28;98077;-56
2023/01/15 07:57:42;;;;;;;0.00;0.00;;;10.70;99.90;;;10.90;54.09;99704.88;4920808;28;98189;-56
2023/01/15 08:00:13;;;;;;;0.00;0.00;;;10.80;99.90;;;10.94;58.18;99709.91;4921616;28;97489;-54
2023/01/15 08:02:39;;;;;;;0.30;0.23;;;10.70;99.90;;;10.91;54.46;99717.97;4939176;28;96685;-53
2023/01/15 08:05:07;;;;;;;3.30;0.40;;;10.80;99.90;;;10.81;54.09;99722.00;4934281;28;97407;-55
2023/01/15 08:07:38;;;;;;;0.20;0.20;;;10.70;99.90;;;10.83;54.87;99728.06;4922327;28;97373;-55
2023/01/15 08:10:04;;;;;;;1.07;0.10;;;10.70;99.90;;;10.92;56.13;99727.59;4943403;28;96902;-55
2023/01/15 08:15:15;;;;;;;0.37;0.10;;;10.80;99.90;;;10.79;54.85;99739.72;4934083;28;97161;-54
2023/01/15 08:17:47;;;;;;;0.00;0.00;;;10.80;99.90;;;10.66;54.71;99734.19;4935881;28;99405;-57
2023/01/15 08:20:16;;;;;;;0.33;0.10;;;10.70;99.90;;;10.54;54.12;99736.59;4926293;28;96853;-57
2023/01/15 08:22:43;;;;;;;0.00;0.00;;;10.70;99.90;;;10.46;54.05;99742.28;4936633;28;97558;-55
2023/01/15 08:25:12;;;;;;;0.83;0.10;;;10.50;99.90;;;10.52;58.83;99746.38;4936812;28;97193;-56
2023/01/15 08:27:39;;;;;;;1.47;0.13;;;10.50;99.90;;;10.54;53.84;99760.31;4919588;28;97582;-56
2023/01/15 08:30:07;;;;;;;0.07;0.00;;;10.60;99.90;;;10.58;58.11;99757.47;4922850;28;97467;-55
2023/01/15 08:32:34;;;;;;;0.00;0.00;;;10.60;99.90;;;10.77;52.57;99770.59;4914397;28;97466;-54
2023/01/15 08:35:00;;;;;;;0.00;0.00;;;10.90;99.90;;;10.90;52.81;99779.59;4941500;28;111470;-54
2023/01/15 08:37:26;;;;;;;3.03;0.10;;;11.00;99.90;;;10.85;51.84;99776.34;4933638;28;97083;-57
2023/01/15 08:39:52;;;;;;;0.00;0.00;;;11.00;99.90;;;10.78;51.24;99776.72;4938178;28;97254;-52
2023/01/15 08:42:19;;;;;;;0.20;0.10;;;10.90;99.90;;;10.96;52.18;99781.91;4930821;28;97448;-56
2023/01/15 08:44:46;;;;;;;2.20;0.10;;;11.10;99.90;;;11.14;55.22;99781.91;4919352;28;101529;-56
2023/01/15 08:47:13;;;;;;;0.00;0.00;;;11.10;99.90;;;11.22;54.09;99785.00;4935126;28;98555;-54
2023/01/15 08:49:38;;;;;;;0.07;0.00;;;11.30;99.90;;;11.20;50.23;99786.88;4924997;28;97405;-57
2023/01/15 08:52:04;;;;;;;0.23;0.00;;;11.40;99.90;;;11.13;54.16;99781.03;4933018;28;117573;-56
2023/01/15 08:54:30;;;;;;;0.00;0.00;;;11.20;99.90;;;10.96;49.83;99784.56;4935019;28;113793;-57
2023/01/15 08:56:59;;;;;;;0.03;0.00;;;11.10;99.90;;;11.06;49.73;99784.09;4939345;28;96833;-56
2023/01/15 08:59:25;;;;;;;0.00;0.00;;;11.10;99.90;;;11.16;54.00;99795.91;4927654;28;97347;-56
2023/01/15 09:01:50;;;;;;;0.50;0.00;;;11.30;99.90;;;11.15;51.73;99788.91;4919540;28;98656;-55
2023/01/15 09:04:19;;;;;;;0.00;0.00;;;11.20;99.90;;;10.93;50.25;99799.69;4935214;28;97232;-55
2023/01/15 09:06:46;;;;;;;0.10;0.10;;;11.00;99.90;;;11.13;55.84;99801.31;4919632;28;97395;-56
2023/01/15 09:09:12;;;;;;;2.67;0.30;;;11.10;99.90;;;11.02;54.60;99800.09;4934332;28;97535;-56
2023/01/15 09:11:39;;;;;;;0.23;0.10;;;11.00;99.90;;;10.96;52.50;99799.53;4919202;28;97366;-56
2023/01/15 09:14:07;;;;;;;0.00;0.00;;;10.90;99.90;;;10.88;51.84;99796.44;4934781;28;97496;-56
2023/01/15 09:16:34;;;;;;;0.00;0.00;;;10.80;99.90;;;10.67;52.23;99803.63;4919014;28;97388;-54
2023/01/15 09:19:00;;;;;;;0.07;0.00;;;10.60;99.90;;;10.70;53.09;99798.19;4928848;28;97381;-54
2023/01/15 09:21:26;;;;;;;0.03;0.03;;;10.60;99.90;;;10.67;54.34;99787.81;4935625;28;97452;-56
2023/01/15 09:23:52;;;;;;;2.53;0.63;;;10.60;99.90;;;10.58;54.21;99788.28;4936307;28;97432;-54
2023/01/15 09:26:28;;;;;;;0.20;0.20;;;10.40;99.90;;;10.47;53.52;99793.22;4915378;28;98896;-53
2023/01/15 09:28:55;;;;;;;0.20;0.20;;;10.40;99.90;;;10.47;54.46;99780.03;4911922;28;103767;-56
2023/01/15 09:31:22;;;;;;;0.83;0.20;;;10.40;99.90;;;10.45;55.09;99779.25;4908357;28;98281;-56
2023/01/15 09:33:48;;;;;;;0.33;0.00;;;10.30;99.90;;;10.47;55.88;99777.41;4916689;28;98614;-56
2023/01/15 09:36:16;;;;;;;2.07;0.10;;;10.30;99.90;;;10.46;58.07;99773.06;4896842;28;99197;-57
2023/01/15 09:38:42;;;;;;;0.17;0.10;;;10.30;99.90;;;10.34;53.97;99785.91;4878158;28;98634;-56
2023/01/15 09:42:04;;;;;;;0.57;0.23;;;10.30;99.90;;;10.50;58.68;99774.59;4914444;28;97837;-57
2023/01/15 09:44:15;;;;;;;0.40;0.20;;;10.30;99.90;;;10.36;54.14;99778.75;4911137;28;100789;-57
2023/01/15 09:46:46;;;;;;;0.57;0.30;;;10.30;99.90;;;10.53;56.15;99785.00;4913017;28;98036;-57
2023/01/15 09:49:41;;;;;;;0.53;0.20;;;10.40;99.90;;;10.45;54.00;99787.16;4907719;28;97328;-52
2023/01/15 09:52:18;;;;;;;1.03;0.30;;;10.40;99.90;;;10.67;54.43;99793.06;4913705;28;101803;-57
2023/01/15 09:55:04;;;;;;;0.93;0.20;;;10.60;99.90;;;10.71;58.37;99794.66;4907576;28;103051;-57
2023/01/15 09:57:31;;;;;;;0.80;0.40;;;10.50;99.90;;;10.55;53.44;99798.94;4913222;28;97628;-56
2023/01/15 10:00:01;;;;;;;0.00;0.00;;;10.60;99.90;;;10.61;56.23;99782.84;4912539;28;98056;-56
2023/01/15 10:02:46;;;;;;;0.20;0.20;;;10.60;99.90;;;10.68;54.87;99781.59;4917229;28;97518;-57
2023/01/15 10:05:36;;;;;;;0.00;0.00;;;10.60;99.90;;;10.72;53.78;99776.09;4917511;28;98213;-57
2023/01/15 10:08:21;;;;;;;0.23;0.07;;;10.70;99.90;;;10.66;52.27;99770.28;4900358;28;99218;-57
2023/01/15 10:10:54;;;;;;;0.70;0.10;;;10.70;99.90;;;10.65;52.13;99774.69;4915836;28;98264;-57
2023/01/15 10:13:59;;;;;;;0.30;0.30;;;10.70;99.90;;;10.74;54.54;99773.41;4912658;28;97844;-61
2023/01/15 10:16:28;;;;;;;0.00;0.00;;;10.70;99.90;;;10.69;51.75;99772.75;4873374;28;99766;-56
2023/01/15 10:19:01;;;;;;;0.30;0.07;;;10.80;99.90;;;11.00;52.98;99775.56;4891209;28;102224;-56
2023/01/15 10:22:10;;;;;;;1.50;0.30;;;11.00;99.90;;;11.32;54.81;99786.25;4897732;28;96930;-55
2023/01/15 10:24:50;;;;;;;0.67;0.30;;;11.40;99.90;;;11.38;50.24;99790.34;4897305;28;98494;-56
2023/01/15 10:27:22;;;;;;;1.13;0.20;;;11.60;99.90;;;11.46;49.53;99804.00;4918249;28;98135;-54
2023/01/15 10:30:46;;;;;;;0.80;0.20;;;11.70;99.90;;;11.74;52.89;99798.09;4892902;28;97895;-57
2023/01/15 10:33:51;;;;;;;0.77;0.23;;;11.90;99.90;;;11.61;49.95;99777.63;4896608;28;97295;-54
2023/01/15 10:36:28;;;;;;;3.07;0.67;;;11.80;99.90;;;11.29;49.61;99802.25;4914021;28;100146;-56
2023/01/15 10:39:08;;;;;;;0.27;0.27;;;11.60;99.90;;;11.33;49.25;99803.78;4907594;28;102557;-56
2023/01/15 10:41:47;;;;;;;0.20;0.10;;;11.60;99.90;;;11.60;50.13;99818.19;4898350;28;97941;-57
2023/01/15 10:44:41;;;;;;;1.10;0.60;;;11.90;99.90;;;11.37;48.67;99829.09;4895525;28;97752;-57
2023/01/15 10:47:14;;;;;;;0.10;0.10;;;11.70;99.90;;;11.47;48.11;99822.41;4895079;28;101745;-56
2023/01/15 10:49:41;;;;;;;0.10;0.10;;;11.80;99.90;;;11.68;49.34;99816.91;4892307;28;99824;-54
2023/01/15 10:52:18;;;;;;;0.20;0.10;;;11.90;99.90;;;11.73;49.28;99818.38;4887913;28;97165;-55
2023/01/15 10:55:01;;;;;;;1.60;0.90;;;12.10;99.90;;;11.80;52.29;99840.06;4895712;28;97472;-57
2023/01/15 10:57:49;;;;;;;1.60;0.47;;;12.10;99.90;;;11.82;48.32;99823.19;4909583;28;99081;-57
2023/01/15 11:00:16;;;;;;;1.30;0.53;;;12.20;99.90;;;11.83;52.35;99813.47;4896360;28;99181;-56
2023/01/15 11:03:13;;;;;;;1.93;0.40;;;12.10;99.90;;;11.62;48.26;99815.47;4896851;28;98590;-56
2023/01/15 11:05:39;;;;;;;1.17;0.30;;;11.90;99.90;;;11.57;48.64;99825.38;4894495;28;97689;-55